TMP weather

Tampere-Pirkkala Airport
Tampere / Pirkkala, Western Finland, Finland

Public forecast

Using degrees Celsius for public forecast. Weather courtesy of forecast.io.

Current aviation weather report (METAR) for Tampere-Pirkkala Airport

Retrieved 2019/10/24 03:20 UTC (13 minutes ago):

EFTP 240320Z AUTO 19007KT 9999 FEW010 BKN032 09/07 Q1011

Aviation forecast (TAF) for Tampere-Pirkkala Airport

Retrieved 2019-10-24 03:42 UTC (0 seconds ago):

TAF EFTP 240225Z 2403/2503 19006KT 9999 BKN022 BECMG 2417/2419 BKN007